createdAt,value
2022-11-01T00:01:50.867Z,45.45
2022-11-01T00:06:57.981Z,45.56
2022-11-01T00:12:05.112Z,45.57
2022-11-01T00:17:12.312Z,45.65
2022-11-01T00:22:19.505Z,45.62
2022-11-01T00:27:26.714Z,45.70
2022-11-01T00:32:33.874Z,45.75
2022-11-01T00:37:41.155Z,45.82
2022-11-01T00:42:48.372Z,45.78
2022-11-01T00:47:55.607Z,45.58
2022-11-01T00:53:02.834Z,45.83
2022-11-01T00:58:09.992Z,45.81
2022-11-01T01:03:17.251Z,45.77
2022-11-01T01:08:24.466Z,45.88
2022-11-01T01:13:31.669Z,45.78
2022-11-01T01:18:38.847Z,45.94
2022-11-01T01:23:46.103Z,45.92
2022-11-01T01:28:53.312Z,46.16
2022-11-01T01:34:00.576Z,46.26
2022-11-01T01:39:07.787Z,46.51
2022-11-01T01:44:14.969Z,46.69
2022-11-01T01:49:22.165Z,46.97
2022-11-01T01:54:29.386Z,47.22
2022-11-01T01:59:36.578Z,47.39
2022-11-01T02:04:44.325Z,47.75
2022-11-01T02:09:51.548Z,47.64
2022-11-01T02:14:58.808Z,47.82
2022-11-01T02:20:06.015Z,47.87
2022-11-01T02:25:13.246Z,47.93
2022-11-01T02:30:20.417Z,48.34
2022-11-01T02:35:27.624Z,48.42
2022-11-01T02:40:34.856Z,48.57
2022-11-01T02:45:42.022Z,48.69
2022-11-01T02:50:49.219Z,48.73
2022-11-01T02:55:56.473Z,48.33
2022-11-01T03:01:03.764Z,48.13
2022-11-01T03:06:10.854Z,47.86
2022-11-01T03:11:18.137Z,47.65
2022-11-01T03:16:25.294Z,47.49
2022-11-01T03:21:32.476Z,47.37
2022-11-01T03:26:39.794Z,47.24
2022-11-01T03:31:46.974Z,47.25
2022-11-01T03:36:54.182Z,47.18
2022-11-01T03:42:01.413Z,47.08
2022-11-01T03:47:08.585Z,47.04
2022-11-01T03:52:15.802Z,47.08
2022-11-01T03:57:22.982Z,47.09
2022-11-01T04:02:30.158Z,47.16
2022-11-01T04:07:37.312Z,47.18
2022-11-01T04:12:44.589Z,47.23
2022-11-01T04:17:51.776Z,47.29
2022-11-01T04:22:59.315Z,47.39
2022-11-01T04:28:06.265Z,47.56
2022-11-01T04:33:13.424Z,47.71
2022-11-01T04:38:20.610Z,47.80
2022-11-01T04:43:27.894Z,47.83
2022-11-01T04:48:35.077Z,47.53
2022-11-01T04:53:43.735Z,47.37
2022-11-01T04:58:51.227Z,47.08
2022-11-01T05:03:58.422Z,47.10
2022-11-01T05:09:05.613Z,46.95
2022-11-01T05:14:12.809Z,46.97
2022-11-01T05:19:20.025Z,46.94
2022-11-01T05:24:27.229Z,46.91
2022-11-01T05:29:34.456Z,46.97
2022-11-01T05:34:41.623Z,46.88
2022-11-01T05:39:48.861Z,46.89
2022-11-01T05:44:56.075Z,46.94
2022-11-01T05:50:03.319Z,46.97
2022-11-01T05:55:10.505Z,46.90
2022-11-01T06:00:17.795Z,46.99
2022-11-01T06:05:24.977Z,47.01
2022-11-01T06:10:32.174Z,47.02
2022-11-01T06:15:39.820Z,47.18
2022-11-01T06:20:46.594Z,47.27
2022-11-01T06:25:53.784Z,47.28
2022-11-01T06:31:01.087Z,47.48
2022-11-01T06:36:08.203Z,47.42
2022-11-01T06:41:15.507Z,47.39
2022-11-01T06:46:22.704Z,47.39
2022-11-01T06:51:30.690Z,47.23
2022-11-01T06:56:37.930Z,47.21
2022-11-01T07:01:45.322Z,47.16
2022-11-01T07:06:52.368Z,47.13
2022-11-01T07:11:59.548Z,47.10
2022-11-01T07:17:06.771Z,47.13
2022-11-01T07:22:13.959Z,47.12
2022-11-01T07:27:21.144Z,47.09
2022-11-01T07:32:28.381Z,47.33
2022-11-01T07:37:35.578Z,47.46
2022-11-01T07:42:42.770Z,47.40
2022-11-01T07:47:49.976Z,47.26
2022-11-01T07:52:57.082Z,47.23
2022-11-01T07:58:04.691Z,47.04
2022-11-01T08:03:11.565Z,46.98
2022-11-01T08:08:18.698Z,46.91
2022-11-01T08:13:25.858Z,46.76
2022-11-01T08:18:33.132Z,46.62
2022-11-01T08:23:40.302Z,46.56
2022-11-01T08:28:47.518Z,46.51
2022-11-01T08:33:54.834Z,46.55
2022-11-01T08:39:02.100Z,46.51
2022-11-01T08:44:09.253Z,46.56
2022-11-01T08:49:16.486Z,46.57
2022-11-01T08:54:23.711Z,46.67
2022-11-01T08:59:30.938Z,46.68
2022-11-01T09:04:40.479Z,46.62
2022-11-01T09:09:47.666Z,46.72
2022-11-01T09:14:54.910Z,46.52
2022-11-01T09:20:02.191Z,46.41
2022-11-01T09:25:09.394Z,46.43
2022-11-01T09:30:16.673Z,46.45
2022-11-01T09:35:23.879Z,46.55
2022-11-01T09:40:31.112Z,46.60
2022-11-01T09:45:38.367Z,46.62
2022-11-01T09:50:45.584Z,46.74
2022-11-01T09:55:52.780Z,46.75
2022-11-01T10:01:00.019Z,46.59
2022-11-01T10:06:07.329Z,46.59
2022-11-01T10:11:14.532Z,46.57
2022-11-01T10:16:21.721Z,46.62
2022-11-01T10:21:29.891Z,46.68
2022-11-01T10:26:36.124Z,46.55
2022-11-01T10:31:43.292Z,46.60
2022-11-01T10:36:50.567Z,46.68
2022-11-01T10:41:57.726Z,46.77
2022-11-01T10:47:05.015Z,46.81
2022-11-01T10:52:12.222Z,46.68
2022-11-01T10:57:19.423Z,46.75
2022-11-01T11:02:26.740Z,46.72
2022-11-01T11:07:33.864Z,46.97
2022-11-01T11:12:40.997Z,46.94
2022-11-01T11:17:48.340Z,46.91
2022-11-01T11:22:55.585Z,47.01
2022-11-01T11:28:02.979Z,46.79
2022-11-01T11:33:09.971Z,46.68
2022-11-01T11:38:17.182Z,46.72
2022-11-01T11:43:24.398Z,46.58
2022-11-01T11:48:31.616Z,46.67
2022-11-01T11:53:38.910Z,46.65
2022-11-01T11:58:46.114Z,46.65
2022-11-01T12:03:53.296Z,46.64
2022-11-01T12:09:00.525Z,46.75
2022-11-01T12:14:07.775Z,46.72
2022-11-01T12:19:16.560Z,46.81
2022-11-01T12:24:23.837Z,46.69
2022-11-01T12:29:31.254Z,46.80
2022-11-01T12:34:41.530Z,46.91
2022-11-01T12:39:46.002Z,47.47
2022-11-01T12:44:53.494Z,47.74
2022-11-01T12:50:00.870Z,48.13
2022-11-01T12:55:08.103Z,48.20
2022-11-01T13:00:15.317Z,48.45
2022-11-01T13:05:22.489Z,47.86
2022-11-01T13:10:29.810Z,48.42
2022-11-01T13:15:36.975Z,47.91
2022-11-01T13:20:44.124Z,47.81
2022-11-01T13:25:51.412Z,47.71
2022-11-01T13:30:58.658Z,47.59
2022-11-01T13:36:05.976Z,47.55
2022-11-01T13:41:13.304Z,47.36
2022-11-01T13:46:20.485Z,47.28
2022-11-01T13:51:27.878Z,47.33
2022-11-01T13:56:35.531Z,47.34
2022-11-01T14:01:42.880Z,47.27
2022-11-01T14:06:49.968Z,47.26
2022-11-01T14:11:57.255Z,47.17
2022-11-01T14:17:04.500Z,47.21
2022-11-01T14:22:11.688Z,47.04
2022-11-01T14:27:19.210Z,47.09
2022-11-01T14:32:26.432Z,47.05
2022-11-01T14:37:33.620Z,47.01
2022-11-01T14:42:41.060Z,47.11
2022-11-01T14:47:48.454Z,47.06
2022-11-01T14:52:55.650Z,47.04
2022-11-01T14:58:03.239Z,47.01
2022-11-01T15:03:09.986Z,46.94
2022-11-01T15:08:17.299Z,46.94
2022-11-01T15:13:24.800Z,47.02
2022-11-01T15:18:32.397Z,46.97
2022-11-01T15:23:39.721Z,47.02
2022-11-01T15:28:47.243Z,47.06
2022-11-01T15:33:55.994Z,47.02
2022-11-01T15:39:03.292Z,46.99
2022-11-01T15:44:10.581Z,47.01
2022-11-01T15:49:17.811Z,46.95
2022-11-01T15:54:30.866Z,46.97
2022-11-01T15:59:33.024Z,47.07
2022-11-01T16:04:40.402Z,47.04
2022-11-01T16:09:47.626Z,47.04
2022-11-01T16:14:55.157Z,47.02
2022-11-01T16:20:03.149Z,47.01
2022-11-01T16:25:10.540Z,46.94
2022-11-01T16:30:17.990Z,46.96
2022-11-01T16:35:25.312Z,47.00
2022-11-01T16:40:32.795Z,47.39
2022-11-01T16:45:42.059Z,47.45
2022-11-01T16:50:49.552Z,47.49
2022-11-01T16:56:01.512Z,47.51
2022-11-01T17:01:04.605Z,47.44
2022-11-01T17:06:11.889Z,47.42
2022-11-01T17:11:19.394Z,47.51
2022-11-01T17:16:26.868Z,47.56
2022-11-01T17:21:34.316Z,47.47
2022-11-01T17:26:41.773Z,47.39
2022-11-01T17:31:48.962Z,47.31
2022-11-01T17:36:56.443Z,47.18
2022-11-01T17:42:03.847Z,47.10
2022-11-01T17:47:11.413Z,46.99
2022-11-01T17:52:18.675Z,46.89
2022-11-01T17:57:25.995Z,46.79
2022-11-01T18:02:33.568Z,46.72
2022-11-01T18:07:41.108Z,46.59
2022-11-01T18:12:48.721Z,46.70
2022-11-01T18:17:58.664Z,46.73
2022-11-01T18:23:03.751Z,46.78
2022-11-01T18:28:11.360Z,46.89
2022-11-01T18:33:18.998Z,46.91
2022-11-01T18:38:26.591Z,47.02
2022-11-01T18:43:34.207Z,47.02
2022-11-01T18:48:41.841Z,46.88
2022-11-01T18:53:49.533Z,47.13
2022-11-01T18:58:57.148Z,46.76
2022-11-01T19:04:06.331Z,46.85
2022-11-01T19:09:13.713Z,46.49
2022-11-01T19:14:21.127Z,46.52
2022-11-01T19:19:28.859Z,46.52
2022-11-01T19:24:36.199Z,46.38
2022-11-01T19:29:43.666Z,46.64
2022-11-01T19:34:51.293Z,46.20
2022-11-01T19:39:58.672Z,46.19
2022-11-01T19:45:06.136Z,46.57
2022-11-01T19:50:14.749Z,46.62
2022-11-01T19:55:22.340Z,46.44
2022-11-01T20:00:30.065Z,46.46
2022-11-01T20:05:37.701Z,46.32
2022-11-01T20:10:45.388Z,46.30
2022-11-01T20:15:53.003Z,46.33
2022-11-01T20:21:00.646Z,46.46
2022-11-01T20:26:08.335Z,46.43
2022-11-01T20:31:15.949Z,46.39
2022-11-01T20:36:23.353Z,46.30
2022-11-01T20:41:30.872Z,46.18
2022-11-01T20:46:38.491Z,46.05
2022-11-01T20:51:45.828Z,46.14
2022-11-01T20:56:53.303Z,46.33
2022-11-01T21:02:00.707Z,46.30
2022-11-01T21:07:07.900Z,46.10
2022-11-01T21:12:15.036Z,46.01
2022-11-01T21:17:22.430Z,45.65
2022-11-01T21:22:29.843Z,45.47
2022-11-01T21:27:37.080Z,45.30
2022-11-01T21:32:45.480Z,45.86
2022-11-01T21:37:51.960Z,45.27
2022-11-01T21:42:59.480Z,45.53
2022-11-01T21:48:07.224Z,45.26
2022-11-01T21:53:14.071Z,45.42
2022-11-01T21:58:21.310Z,45.32
2022-11-01T22:03:28.510Z,45.24
2022-11-01T22:08:35.739Z,45.34
2022-11-01T22:13:42.987Z,45.01
2022-11-01T22:18:50.198Z,44.86
2022-11-01T22:23:57.445Z,45.10
2022-11-01T22:29:04.640Z,45.03
2022-11-01T22:34:11.866Z,45.21
2022-11-01T22:39:19.066Z,44.63
2022-11-01T22:44:26.291Z,44.65
2022-11-01T22:49:33.451Z,44.62
2022-11-01T22:54:40.743Z,44.72
2022-11-01T22:59:47.968Z,44.84
2022-11-01T23:04:55.128Z,45.32
2022-11-01T23:10:02.408Z,45.33
2022-11-01T23:15:09.574Z,45.51
2022-11-01T23:20:16.787Z,45.61
2022-11-01T23:25:24.014Z,45.10
2022-11-01T23:30:31.234Z,44.99
2022-11-01T23:35:38.401Z,44.56
2022-11-01T23:40:45.649Z,44.34
2022-11-01T23:45:52.819Z,44.38
2022-11-01T23:51:00.013Z,44.51
2022-11-01T23:56:07.243Z,44.63
